createdAt,value
2023-04-27T00:00:45.470Z,50.32
2023-04-27T00:01:45.523Z,50.12
2023-04-27T00:02:45.702Z,50.08
2023-04-27T00:03:45.636Z,50.29
2023-04-27T00:04:45.778Z,50.29
2023-04-27T00:05:45.662Z,50.34
2023-04-27T00:06:45.589Z,50.50
2023-04-27T00:07:45.622Z,50.57
2023-04-27T00:08:45.722Z,50.46
2023-04-27T00:09:45.682Z,50.36
2023-04-27T00:10:45.659Z,50.40
2023-04-27T00:11:45.695Z,50.53
2023-04-27T00:12:45.708Z,50.55
2023-04-27T00:13:45.748Z,50.43
2023-04-27T00:14:45.812Z,50.74
2023-04-27T00:15:45.815Z,50.90
2023-04-27T00:16:46.666Z,51.10
2023-04-27T00:17:45.874Z,50.83
2023-04-27T00:18:45.889Z,51.04
2023-04-27T00:19:45.946Z,50.67
2023-04-27T00:20:45.959Z,50.46
2023-04-27T00:21:45.950Z,50.19
2023-04-27T00:22:45.966Z,50.08
2023-04-27T00:23:46.041Z,50.20
2023-04-27T00:24:46.039Z,50.26
2023-04-27T00:25:46.656Z,50.21
2023-04-27T00:26:46.136Z,49.96
2023-04-27T00:27:46.168Z,49.70
2023-04-27T00:28:46.156Z,49.67
2023-04-27T00:29:46.174Z,49.60
2023-04-27T00:30:46.205Z,49.80
2023-04-27T00:31:46.311Z,50.00
2023-04-27T00:32:46.290Z,50.29
2023-04-27T00:33:46.232Z,50.49
2023-04-27T00:34:46.272Z,50.47
2023-04-27T00:35:46.352Z,50.26
2023-04-27T00:36:46.372Z,50.02
2023-04-27T00:37:46.416Z,49.95
2023-04-27T00:38:46.438Z,50.07
2023-04-27T00:39:46.540Z,49.80
2023-04-27T00:40:46.575Z,50.02
2023-04-27T00:41:46.657Z,50.03
2023-04-27T00:42:46.651Z,49.67
2023-04-27T00:43:46.690Z,49.80
2023-04-27T00:44:46.732Z,50.23
2023-04-27T00:45:46.765Z,50.75
2023-04-27T00:46:46.752Z,51.31
2023-04-27T00:47:46.939Z,51.07
2023-04-27T00:48:46.851Z,51.09
2023-04-27T00:49:46.864Z,51.02
2023-04-27T00:50:46.899Z,50.85
2023-04-27T00:51:46.996Z,50.75
2023-04-27T00:52:46.963Z,50.83
2023-04-27T00:53:46.988Z,51.19
2023-04-27T00:54:47.063Z,51.49
2023-04-27T00:55:47.073Z,51.33
2023-04-27T00:56:47.094Z,51.36
2023-04-27T00:57:47.267Z,51.54
2023-04-27T00:58:47.255Z,51.91
2023-04-27T00:59:47.328Z,51.51
2023-04-27T01:00:47.278Z,50.38
2023-04-27T01:01:47.303Z,49.91
2023-04-27T01:02:47.465Z,50.42
2023-04-27T01:03:47.530Z,50.42
2023-04-27T01:04:47.366Z,50.52
2023-04-27T01:05:47.437Z,50.98
2023-04-27T01:06:47.436Z,52.92
2023-04-27T01:07:48.194Z,52.77
2023-04-27T01:08:47.466Z,52.06
2023-04-27T01:09:47.589Z,51.57
2023-04-27T01:10:47.560Z,50.99
2023-04-27T01:11:47.655Z,50.92
2023-04-27T01:12:47.696Z,50.74
2023-04-27T01:13:47.784Z,50.59
2023-04-27T01:14:47.740Z,50.69
2023-04-27T01:15:47.735Z,50.88
2023-04-27T01:16:47.799Z,51.40
2023-04-27T01:17:47.810Z,51.91
2023-04-27T01:18:47.817Z,52.26
2023-04-27T01:19:47.874Z,52.50
2023-04-27T01:20:47.959Z,51.93
2023-04-27T01:21:47.941Z,52.10
2023-04-27T01:22:47.914Z,51.56
2023-04-27T01:23:47.953Z,51.60
2023-04-27T01:24:48.046Z,51.27
2023-04-27T01:25:48.700Z,51.09
2023-04-27T01:26:48.081Z,50.73
2023-04-27T01:27:48.129Z,50.82
2023-04-27T01:28:48.162Z,50.96
2023-04-27T01:29:48.300Z,50.86
2023-04-27T01:30:48.231Z,50.50
2023-04-27T01:31:48.285Z,50.43
2023-04-27T01:32:48.486Z,50.60
2023-04-27T01:33:48.463Z,50.67
2023-04-27T01:34:48.310Z,51.37
2023-04-27T01:35:48.279Z,51.76
2023-04-27T01:36:48.294Z,51.83
2023-04-27T01:37:48.316Z,52.15
2023-04-27T01:38:48.335Z,52.12
2023-04-27T01:39:48.406Z,52.46
2023-04-27T01:40:48.420Z,52.40
2023-04-27T01:41:48.557Z,52.77
2023-04-27T01:42:48.517Z,52.78
2023-04-27T01:43:48.541Z,52.56
2023-04-27T01:44:48.736Z,52.22
2023-04-27T01:45:48.696Z,51.75
2023-04-27T01:46:48.683Z,51.46
2023-04-27T01:47:48.747Z,51.35
2023-04-27T01:48:48.720Z,51.59
2023-04-27T01:49:48.800Z,51.38
2023-04-27T01:50:48.842Z,51.12
2023-04-27T01:51:48.927Z,51.17
2023-04-27T01:52:48.959Z,51.12
2023-04-27T01:53:48.964Z,51.36
2023-04-27T01:54:49.079Z,51.96
2023-04-27T01:55:49.108Z,52.04
2023-04-27T01:56:49.026Z,51.80
2023-04-27T01:57:49.042Z,51.83
2023-04-27T01:58:49.080Z,51.71
2023-04-27T01:59:49.150Z,51.78
2023-04-27T02:00:49.169Z,51.68
2023-04-27T02:01:49.287Z,51.67
2023-04-27T02:02:49.370Z,51.52
2023-04-27T02:03:49.447Z,51.34
2023-04-27T02:04:49.484Z,51.22
2023-04-27T02:05:49.340Z,51.37
2023-04-27T02:06:49.422Z,51.81
2023-04-27T02:07:49.497Z,52.18
2023-04-27T02:08:49.516Z,52.33
2023-04-27T02:09:49.587Z,52.38
2023-04-27T02:10:49.643Z,52.35
2023-04-27T02:11:49.677Z,52.41
2023-04-27T02:12:49.751Z,52.41
2023-04-27T02:13:49.804Z,52.48
2023-04-27T02:14:50.182Z,52.90
2023-04-27T02:15:49.929Z,52.82
2023-04-27T02:16:49.934Z,52.82
2023-04-27T02:17:50.120Z,52.94
2023-04-27T02:18:50.088Z,53.02
2023-04-27T02:19:50.216Z,52.91
2023-04-27T02:20:50.135Z,52.82
2023-04-27T02:21:51.224Z,53.01
2023-04-27T02:22:50.289Z,53.26
2023-04-27T02:23:50.313Z,53.19
2023-04-27T02:24:50.323Z,53.69
2023-04-27T02:25:50.361Z,53.35
2023-04-27T02:26:50.363Z,53.52
2023-04-27T02:27:50.438Z,53.91
2023-04-27T02:28:50.446Z,54.57
2023-04-27T02:29:50.429Z,54.76
2023-04-27T02:30:50.419Z,55.02
2023-04-27T02:31:50.601Z,54.68
2023-04-27T02:32:50.534Z,54.82
2023-04-27T02:33:50.533Z,54.62
2023-04-27T02:34:50.676Z,54.73
2023-04-27T02:35:50.548Z,54.65
2023-04-27T02:36:50.555Z,53.98
2023-04-27T02:37:50.573Z,55.14
2023-04-27T02:38:50.653Z,55.33
2023-04-27T02:39:50.627Z,54.85
2023-04-27T02:40:50.625Z,54.23
2023-04-27T02:41:50.641Z,54.89
2023-04-27T02:42:50.724Z,54.58
2023-04-27T02:43:50.675Z,54.30
2023-04-27T02:44:50.680Z,54.38
2023-04-27T02:45:50.730Z,54.62
2023-04-27T02:46:50.841Z,54.73
2023-04-27T02:47:50.968Z,54.45
2023-04-27T02:48:50.837Z,54.65
2023-04-27T02:49:50.904Z,54.59
2023-04-27T02:50:50.932Z,54.25
2023-04-27T02:51:50.928Z,54.53
2023-04-27T02:52:50.949Z,54.53
2023-04-27T02:53:51.002Z,54.31
2023-04-27T02:54:51.020Z,54.94
2023-04-27T02:55:51.068Z,55.17
2023-04-27T02:56:51.074Z,54.71
2023-04-27T02:57:51.082Z,54.59
2023-04-27T02:58:51.119Z,54.41
2023-04-27T02:59:51.190Z,54.25
2023-04-27T03:00:51.224Z,54.52
2023-04-27T03:01:51.204Z,54.35
2023-04-27T03:02:51.413Z,54.55
2023-04-27T03:03:51.477Z,54.84
2023-04-27T03:04:51.402Z,57.30
2023-04-27T03:05:51.286Z,55.54
2023-04-27T03:06:51.304Z,55.72
2023-04-27T03:07:51.325Z,55.07
2023-04-27T03:08:51.396Z,54.42
2023-04-27T03:09:51.384Z,53.23
2023-04-27T03:10:51.327Z,52.85
2023-04-27T03:11:51.406Z,54.62
2023-04-27T03:12:51.380Z,55.12
2023-04-27T03:13:51.452Z,54.64
2023-04-27T03:14:51.462Z,54.86
2023-04-27T03:15:51.483Z,55.11
2023-04-27T03:16:51.667Z,55.11
2023-04-27T03:17:51.631Z,54.87
2023-04-27T03:18:51.682Z,54.96
2023-04-27T03:19:51.784Z,54.53
2023-04-27T03:20:51.840Z,54.60
2023-04-27T03:21:51.894Z,55.19
2023-04-27T03:22:51.819Z,55.98
2023-04-27T03:23:51.845Z,56.71
2023-04-27T03:24:51.860Z,56.26
2023-04-27T03:25:51.870Z,56.09
2023-04-27T03:26:51.961Z,56.02
2023-04-27T03:27:51.907Z,55.45
2023-04-27T03:28:51.892Z,55.42
2023-04-27T03:29:52.191Z,55.24
2023-04-27T03:30:52.022Z,54.99
2023-04-27T03:31:52.074Z,54.95
2023-04-27T03:32:52.214Z,54.89
2023-04-27T03:33:52.071Z,54.94
2023-04-27T03:34:52.088Z,54.91
2023-04-27T03:35:52.062Z,54.39
2023-04-27T03:36:52.071Z,54.31
2023-04-27T03:37:52.055Z,54.63
2023-04-27T03:38:52.052Z,54.61
2023-04-27T03:39:52.082Z,54.35
2023-04-27T03:40:52.100Z,54.63
2023-04-27T03:41:52.117Z,54.74
2023-04-27T03:42:52.148Z,54.49
2023-04-27T03:43:52.153Z,54.26
2023-04-27T03:44:52.332Z,54.20
2023-04-27T03:45:52.310Z,53.93
2023-04-27T03:46:52.369Z,53.99
2023-04-27T03:47:52.459Z,54.32
2023-04-27T03:48:52.354Z,54.84
2023-04-27T03:49:52.371Z,55.31
2023-04-27T03:50:52.390Z,55.15
2023-04-27T03:51:52.398Z,56.04
2023-04-27T03:52:52.479Z,56.68
2023-04-27T03:53:52.440Z,55.93
2023-04-27T03:54:52.465Z,55.98
2023-04-27T03:55:52.616Z,56.44
2023-04-27T03:56:52.604Z,55.66
2023-04-27T03:57:52.670Z,54.93
2023-04-27T03:58:52.705Z,54.52
2023-04-27T03:59:52.758Z,54.48
2023-04-27T04:00:52.784Z,54.94
2023-04-27T04:01:52.723Z,54.96
2023-04-27T04:02:53.063Z,55.12
2023-04-27T04:03:52.793Z,54.99
2023-04-27T04:04:53.321Z,56.18
2023-04-27T04:05:52.768Z,55.80
2023-04-27T04:06:52.796Z,55.78
2023-04-27T04:07:52.798Z,56.32
2023-04-27T04:08:52.835Z,55.75
2023-04-27T04:09:52.901Z,55.37
2023-04-27T04:10:52.915Z,55.18
2023-04-27T04:11:52.942Z,55.29
2023-04-27T04:12:53.021Z,55.41
2023-04-27T04:13:53.016Z,55.40
2023-04-27T04:14:53.097Z,55.41
2023-04-27T04:15:53.182Z,55.39
2023-04-27T04:16:53.138Z,55.79
2023-04-27T04:17:53.220Z,57.30
2023-04-27T04:18:53.138Z,58.19
2023-04-27T04:19:53.124Z,58.58
2023-04-27T04:20:53.167Z,59.70
2023-04-27T04:21:53.201Z,59.55
2023-04-27T04:22:53.206Z,59.16
2023-04-27T04:23:53.198Z,59.08
2023-04-27T04:24:53.229Z,58.91
2023-04-27T04:25:53.350Z,58.71
2023-04-27T04:26:53.316Z,58.59
2023-04-27T04:27:55.206Z,58.79
2023-04-27T04:28:53.345Z,58.50
2023-04-27T04:29:53.372Z,58.35
2023-04-27T04:30:53.471Z,58.67
2023-04-27T04:31:53.467Z,58.84
2023-04-27T04:32:54.273Z,58.77
2023-04-27T04:33:53.557Z,58.71
2023-04-27T04:34:53.554Z,58.54
2023-04-27T04:35:53.596Z,58.68
2023-04-27T04:36:53.599Z,58.61
2023-04-27T04:37:53.672Z,58.51
2023-04-27T04:38:53.698Z,58.54
2023-04-27T04:39:53.772Z,58.61
2023-04-27T04:40:53.752Z,58.56
2023-04-27T04:41:53.786Z,59.38
2023-04-27T04:42:53.859Z,59.65
2023-04-27T04:43:53.784Z,59.44
2023-04-27T04:44:53.817Z,59.21
2023-04-27T04:45:54.740Z,58.57
2023-04-27T04:46:53.935Z,58.58
2023-04-27T04:47:53.937Z,58.13
2023-04-27T04:48:54.832Z,58.43
2023-04-27T04:49:53.958Z,59.16
2023-04-27T04:50:54.129Z,59.42
2023-04-27T04:51:54.034Z,59.39
2023-04-27T04:52:54.058Z,58.91
2023-04-27T04:53:54.128Z,59.54
2023-04-27T04:54:54.153Z,59.87
2023-04-27T04:55:54.231Z,59.31
2023-04-27T04:56:54.231Z,59.14
2023-04-27T04:57:54.249Z,58.77
2023-04-27T04:58:54.313Z,58.18
2023-04-27T04:59:54.344Z,58.29
2023-04-27T05:00:54.353Z,58.33
2023-04-27T05:01:54.488Z,58.17
2023-04-27T05:02:54.672Z,57.98
2023-04-27T05:03:55.341Z,57.94
2023-04-27T05:04:54.676Z,58.17
2023-04-27T05:05:54.540Z,58.22
2023-04-27T05:06:54.541Z,58.07
2023-04-27T05:07:54.666Z,58.25
2023-04-27T05:08:54.662Z,57.90
2023-04-27T05:09:54.718Z,57.60
2023-04-27T05:10:54.785Z,57.63
2023-04-27T05:11:54.848Z,57.67
2023-04-27T05:12:54.951Z,57.87
2023-04-27T05:13:54.852Z,57.91
2023-04-27T05:14:55.023Z,57.76
2023-04-27T05:15:55.082Z,57.48
2023-04-27T05:16:55.008Z,57.20
2023-04-27T05:17:55.333Z,57.37
2023-04-27T05:18:55.114Z,57.28
2023-04-27T05:19:55.120Z,57.40
2023-04-27T05:20:55.193Z,57.80
2023-04-27T05:21:55.164Z,57.47
2023-04-27T05:22:55.240Z,57.53
2023-04-27T05:23:56.222Z,57.84
2023-04-27T05:24:55.342Z,58.26
2023-04-27T05:25:55.409Z,58.11
2023-04-27T05:26:55.411Z,58.02
2023-04-27T05:27:55.481Z,58.58
2023-04-27T05:28:56.274Z,58.48
2023-04-27T05:29:55.561Z,58.37
2023-04-27T05:30:55.520Z,58.74
2023-04-27T05:31:55.616Z,58.96
2023-04-27T05:32:55.641Z,58.83
2023-04-27T05:33:55.755Z,58.77
2023-04-27T05:34:55.640Z,58.92
2023-04-27T05:35:55.729Z,59.23
2023-04-27T05:36:56.344Z,59.21
2023-04-27T05:37:55.831Z,58.94
2023-04-27T05:38:56.766Z,58.59
2023-04-27T05:39:57.738Z,58.43
2023-04-27T05:40:56.869Z,58.43
2023-04-27T05:41:56.799Z,58.33
2023-04-27T05:42:56.337Z,58.43
2023-04-27T05:43:56.242Z,58.65
2023-04-27T05:44:56.158Z,58.43
2023-04-27T05:45:56.270Z,58.51
2023-04-27T05:46:56.441Z,59.07
2023-04-27T05:47:57.280Z,59.04
2023-04-27T05:48:56.546Z,59.09
2023-04-27T05:49:56.457Z,58.95
2023-04-27T05:50:57.266Z,58.92
2023-04-27T05:51:56.951Z,58.94
2023-04-27T05:52:56.755Z,58.88
2023-04-27T05:53:56.586Z,58.53
2023-04-27T05:54:56.657Z,58.56
2023-04-27T05:55:56.737Z,58.79
2023-04-27T05:56:56.614Z,58.41
2023-04-27T05:58:07.131Z,58.36
2023-04-27T05:58:59.526Z,58.07
2023-04-27T05:59:57.305Z,57.92
2023-04-27T06:00:57.382Z,57.69
2023-04-27T06:01:56.691Z,57.60
2023-04-27T06:02:56.739Z,57.55
2023-04-27T06:03:56.653Z,57.56
2023-04-27T06:04:57.268Z,57.83
2023-04-27T06:05:58.711Z,57.69
2023-04-27T06:06:56.684Z,57.56
2023-04-27T06:07:56.676Z,57.29
2023-04-27T06:08:56.717Z,57.23
2023-04-27T06:09:56.780Z,57.65
2023-04-27T06:10:56.850Z,57.36
2023-04-27T06:11:56.898Z,57.16
2023-04-27T06:12:56.919Z,57.20
2023-04-27T06:13:56.940Z,57.12
2023-04-27T06:14:57.754Z,57.09
2023-04-27T06:15:57.016Z,57.02
2023-04-27T06:16:57.016Z,57.05
2023-04-27T06:17:57.156Z,56.64
2023-04-27T06:18:57.039Z,56.31
2023-04-27T06:19:57.064Z,56.48
2023-04-27T06:20:57.108Z,56.46
2023-04-27T06:21:57.114Z,56.32
2023-04-27T06:22:57.145Z,56.32
2023-04-27T06:23:57.154Z,56.37
2023-04-27T06:24:57.223Z,56.23
2023-04-27T06:25:57.237Z,56.75
2023-04-27T06:26:57.272Z,56.41
2023-04-27T06:27:57.286Z,56.18
2023-04-27T06:28:57.398Z,56.10
2023-04-27T06:29:57.353Z,56.17
2023-04-27T06:30:57.567Z,55.95
2023-04-27T06:31:57.501Z,55.83
2023-04-27T06:32:57.515Z,55.72
2023-04-27T06:33:57.566Z,55.76
2023-04-27T06:34:57.678Z,55.83
2023-04-27T06:35:57.641Z,55.83
2023-04-27T06:36:57.598Z,55.23
2023-04-27T06:37:57.669Z,55.20
2023-04-27T06:38:57.881Z,55.27
2023-04-27T06:39:57.774Z,55.31
2023-04-27T06:40:57.783Z,55.21
2023-04-27T06:41:57.792Z,55.01
2023-04-27T06:42:58.749Z,55.05
2023-04-27T06:43:59.046Z,55.04
2023-04-27T06:44:57.891Z,55.24
2023-04-27T06:45:58.170Z,54.94
2023-04-27T06:46:57.932Z,54.76
2023-04-27T06:47:59.931Z,54.50
2023-04-27T06:48:58.102Z,54.88
2023-04-27T06:49:57.993Z,55.40
2023-04-27T06:50:58.075Z,55.36
2023-04-27T06:51:58.071Z,55.43
2023-04-27T06:52:58.106Z,54.92
2023-04-27T06:53:58.187Z,55.09
2023-04-27T06:54:58.139Z,54.76
2023-04-27T06:55:58.181Z,54.50
2023-04-27T06:56:58.284Z,54.68
2023-04-27T06:57:59.316Z,54.88
2023-04-27T06:58:58.260Z,55.00
2023-04-27T06:59:58.314Z,55.24
2023-04-27T07:00:58.387Z,55.25
2023-04-27T07:01:58.417Z,55.16
2023-04-27T07:02:58.517Z,55.29
2023-04-27T07:03:58.532Z,55.83
2023-04-27T07:04:58.596Z,55.51
2023-04-27T07:05:58.508Z,55.08
2023-04-27T07:06:58.677Z,54.97
2023-04-27T07:08:00.912Z,55.09
2023-04-27T07:08:58.510Z,55.22
2023-04-27T07:09:58.610Z,55.37
2023-04-27T07:10:58.487Z,55.42
2023-04-27T07:11:59.355Z,55.48
2023-04-27T07:12:58.527Z,55.14
2023-04-27T07:13:58.602Z,55.08
2023-04-27T07:14:58.587Z,55.13
2023-04-27T07:15:58.649Z,55.25
2023-04-27T07:16:58.493Z,55.49
2023-04-27T07:17:58.663Z,55.04
2023-04-27T07:18:58.442Z,55.32
2023-04-27T07:19:59.382Z,55.33
2023-04-27T07:20:59.387Z,55.20
2023-04-27T07:21:58.553Z,54.99
2023-04-27T07:22:58.435Z,55.69
2023-04-27T07:23:58.463Z,55.62
2023-04-27T07:24:58.406Z,55.61
2023-04-27T07:25:58.801Z,56.13
2023-04-27T07:26:58.479Z,56.89
2023-04-27T07:27:58.458Z,56.35
2023-04-27T07:28:58.515Z,56.21
2023-04-27T07:29:58.493Z,55.72
2023-04-27T07:30:58.552Z,55.84
2023-04-27T07:31:58.654Z,55.91
2023-04-27T07:32:58.654Z,56.22
2023-04-27T07:33:59.349Z,55.47
2023-04-27T07:34:59.316Z,55.18
2023-04-27T07:35:59.304Z,55.41
2023-04-27T07:36:58.768Z,54.86
2023-04-27T07:37:59.316Z,54.88
2023-04-27T07:38:58.813Z,54.65
2023-04-27T07:39:59.290Z,54.69
2023-04-27T07:40:58.847Z,55.15
2023-04-27T07:41:58.780Z,55.79
2023-04-27T07:42:58.743Z,55.66
2023-04-27T07:43:58.814Z,55.02
2023-04-27T07:44:58.782Z,55.10
2023-04-27T07:45:59.330Z,54.70
2023-04-27T07:46:58.869Z,53.73
2023-04-27T07:47:58.979Z,53.30
2023-04-27T07:48:59.263Z,53.18
2023-04-27T07:49:58.871Z,52.84
2023-04-27T07:51:00.779Z,52.42
2023-04-27T07:51:58.904Z,53.13
2023-04-27T07:52:58.937Z,52.98
2023-04-27T07:53:58.906Z,53.19
2023-04-27T07:54:58.907Z,53.41
2023-04-27T07:55:59.329Z,53.02
2023-04-27T07:56:59.020Z,52.52
2023-04-27T07:57:59.106Z,52.25
2023-04-27T07:58:59.277Z,52.62
2023-04-27T07:59:59.114Z,52.48
2023-04-27T08:00:59.835Z,52.74
2023-04-27T08:02:11.171Z,53.29
2023-04-27T08:03:01.064Z,52.67
2023-04-27T08:03:59.395Z,52.74
2023-04-27T08:04:59.674Z,52.74
2023-04-27T08:05:59.781Z,52.43
2023-04-27T08:06:59.785Z,52.51
2023-04-27T08:08:00.247Z,52.49
2023-04-27T08:08:59.128Z,53.10
2023-04-27T08:09:59.135Z,52.95
2023-04-27T08:10:59.160Z,52.69
2023-04-27T08:11:59.375Z,52.17
2023-04-27T08:12:59.096Z,52.21
2023-04-27T08:13:59.107Z,52.06
2023-04-27T08:14:59.388Z,51.92
2023-04-27T08:15:59.137Z,51.61
2023-04-27T08:16:59.204Z,51.78
2023-04-27T08:17:59.297Z,52.04
2023-04-27T08:19:00.708Z,52.14
2023-04-27T08:19:59.282Z,52.44
2023-04-27T08:20:59.290Z,52.80
2023-04-27T08:21:59.440Z,53.06
2023-04-27T08:22:59.371Z,52.65
2023-04-27T08:24:01.310Z,52.48
2023-04-27T08:24:59.466Z,52.02
2023-04-27T08:25:59.608Z,51.25
2023-04-27T08:26:59.479Z,51.53
2023-04-27T08:28:00.318Z,51.58
2023-04-27T08:28:59.504Z,51.25
2023-04-27T08:29:59.515Z,50.67
2023-04-27T08:30:59.803Z,50.28
2023-04-27T08:31:59.623Z,50.13
2023-04-27T08:32:59.662Z,50.15
2023-04-27T08:34:00.311Z,50.34
2023-04-27T08:34:59.651Z,49.94
2023-04-27T08:36:00.295Z,50.09
2023-04-27T08:36:59.731Z,50.08
2023-04-27T08:37:59.736Z,49.90
2023-04-27T08:38:59.926Z,49.46
2023-04-27T08:40:00.325Z,49.36
2023-04-27T08:41:07.665Z,48.56
2023-04-27T08:42:00.800Z,47.13
2023-04-27T08:42:59.769Z,47.09
2023-04-27T08:43:59.782Z,47.23
2023-04-27T08:44:59.737Z,47.33
2023-04-27T08:45:59.850Z,47.44
2023-04-27T08:46:59.733Z,47.38
2023-04-27T08:47:59.808Z,47.55
2023-04-27T08:48:59.742Z,47.74
2023-04-27T08:49:59.740Z,47.13
2023-04-27T08:50:59.707Z,46.36
2023-04-27T08:51:59.724Z,45.94
2023-04-27T08:52:59.706Z,45.76
2023-04-27T08:53:59.713Z,45.44
2023-04-27T08:54:59.729Z,45.62
2023-04-27T08:55:59.756Z,45.21
2023-04-27T08:56:59.790Z,45.03
2023-04-27T08:57:59.787Z,44.56
2023-04-27T08:58:59.813Z,45.10
2023-04-27T08:59:59.818Z,45.74
2023-04-27T09:00:59.826Z,45.66
2023-04-27T09:01:59.895Z,45.39
2023-04-27T09:03:00.220Z,44.98
2023-04-27T09:04:00.221Z,44.65
2023-04-27T09:05:00.342Z,44.94
2023-04-27T09:06:05.060Z,45.46
2023-04-27T09:07:01.055Z,45.28
2023-04-27T09:08:00.146Z,45.42
2023-04-27T09:09:00.051Z,45.14
2023-04-27T09:10:00.009Z,45.19
2023-04-27T09:11:00.041Z,44.91
2023-04-27T09:11:59.992Z,45.27
2023-04-27T09:13:00.076Z,44.76
2023-04-27T09:14:00.208Z,43.95
2023-04-27T09:14:59.997Z,43.09
2023-04-27T09:16:00.007Z,42.97
2023-04-27T09:17:00.146Z,43.03
2023-04-27T09:18:00.128Z,42.70
2023-04-27T09:19:00.053Z,42.44
2023-04-27T09:19:59.950Z,42.37
2023-04-27T09:21:00.056Z,42.85
2023-04-27T09:22:00.171Z,43.05
2023-04-27T09:23:00.259Z,43.18
2023-04-27T09:24:00.132Z,43.32
2023-04-27T09:25:00.213Z,43.06
2023-04-27T09:26:00.281Z,43.22
2023-04-27T09:27:00.947Z,42.81
2023-04-27T09:28:00.225Z,42.46
2023-04-27T09:29:00.276Z,42.89
2023-04-27T09:30:00.278Z,42.97
2023-04-27T09:31:00.419Z,42.76
2023-04-27T09:32:00.426Z,41.99
2023-04-27T09:33:00.417Z,42.27
2023-04-27T09:34:00.379Z,42.29
2023-04-27T09:35:00.442Z,41.59
2023-04-27T09:36:00.460Z,41.13
2023-04-27T09:37:00.474Z,40.32
2023-04-27T09:38:00.584Z,39.88
2023-04-27T09:39:00.551Z,39.73
2023-04-27T09:40:00.578Z,39.98
2023-04-27T09:41:00.598Z,39.98
2023-04-27T09:42:00.651Z,39.36
2023-04-27T09:43:00.725Z,39.80
2023-04-27T09:44:00.851Z,39.80
2023-04-27T09:45:00.714Z,39.45
2023-04-27T09:46:00.856Z,39.25
2023-04-27T09:47:00.775Z,38.98
2023-04-27T09:48:01.471Z,38.81
2023-04-27T09:49:00.780Z,38.71
2023-04-27T09:50:00.799Z,38.60
2023-04-27T09:51:00.871Z,38.79
2023-04-27T09:52:00.860Z,39.35
2023-04-27T09:53:01.114Z,39.56
2023-04-27T09:54:01.801Z,39.69
2023-04-27T09:55:00.943Z,38.95
2023-04-27T09:56:01.810Z,39.39
2023-04-27T09:57:00.981Z,39.64
2023-04-27T09:58:01.011Z,39.20
2023-04-27T09:59:01.441Z,39.75
2023-04-27T10:00:01.095Z,39.58
2023-04-27T10:01:01.205Z,39.40
2023-04-27T10:02:07.311Z,39.45
2023-04-27T10:03:02.312Z,39.91
2023-04-27T10:04:02.036Z,40.08
2023-04-27T10:05:01.273Z,40.17
2023-04-27T10:06:01.153Z,39.77
2023-04-27T10:07:01.351Z,39.38
2023-04-27T10:08:01.210Z,38.84
2023-04-27T10:09:01.162Z,38.76
2023-04-27T10:10:01.147Z,39.34
2023-04-27T10:11:01.201Z,39.24
2023-04-27T10:12:01.845Z,38.79
2023-04-27T10:13:01.160Z,38.79
2023-04-27T10:14:01.099Z,38.78
2023-04-27T10:15:01.147Z,38.69
2023-04-27T10:16:01.281Z,38.76
2023-04-27T10:17:01.178Z,38.61
2023-04-27T10:18:01.874Z,38.54
2023-04-27T10:19:01.205Z,38.51
2023-04-27T10:20:01.237Z,39.10
2023-04-27T10:21:01.256Z,38.88
2023-04-27T10:22:01.320Z,38.49
2023-04-27T10:23:01.366Z,38.51
2023-04-27T10:24:01.429Z,38.54
2023-04-27T10:25:01.507Z,37.97
2023-04-27T10:26:01.526Z,37.17
2023-04-27T10:27:01.555Z,37.00
2023-04-27T10:28:01.672Z,36.26
2023-04-27T10:29:01.641Z,36.76
2023-04-27T10:30:01.683Z,36.66
2023-04-27T10:31:01.783Z,37.03
2023-04-27T10:32:01.823Z,37.75
2023-04-27T10:33:01.868Z,37.81
2023-04-27T10:34:03.322Z,37.12
2023-04-27T10:35:01.853Z,37.84
2023-04-27T10:36:01.888Z,37.73
2023-04-27T10:37:02.093Z,38.41
2023-04-27T10:38:01.961Z,38.55
2023-04-27T10:39:01.996Z,38.21
2023-04-27T10:40:01.891Z,37.48
2023-04-27T10:41:02.048Z,37.53
2023-04-27T10:42:02.505Z,37.11
2023-04-27T10:43:01.972Z,35.90
2023-04-27T10:44:02.847Z,36.08
2023-04-27T10:45:02.057Z,36.64
2023-04-27T10:46:02.088Z,35.94
2023-04-27T10:47:02.077Z,35.01
2023-04-27T10:48:02.335Z,36.46
2023-04-27T10:49:02.170Z,37.06
2023-04-27T10:50:02.374Z,37.04
2023-04-27T10:51:02.419Z,37.03
2023-04-27T10:52:02.833Z,36.76
2023-04-27T10:53:02.250Z,36.00
2023-04-27T10:54:02.436Z,35.55
2023-04-27T10:55:02.450Z,36.02
2023-04-27T10:56:03.340Z,35.83
2023-04-27T10:57:02.829Z,35.95
2023-04-27T10:58:02.466Z,34.80
2023-04-27T10:59:02.648Z,35.20
2023-04-27T11:00:02.510Z,37.09
2023-04-27T11:01:02.497Z,36.90
2023-04-27T11:02:02.602Z,36.42
2023-04-27T11:03:02.586Z,36.35
2023-04-27T11:04:02.608Z,36.05
2023-04-27T11:05:02.714Z,35.87
2023-04-27T11:06:02.661Z,35.64
2023-04-27T11:07:03.346Z,35.20
2023-04-27T11:08:02.684Z,35.51
2023-04-27T11:09:02.747Z,36.01
2023-04-27T11:10:02.761Z,36.24
2023-04-27T11:11:02.720Z,35.89
2023-04-27T11:12:02.782Z,35.73
2023-04-27T11:13:02.805Z,36.27
2023-04-27T11:14:02.792Z,36.59
2023-04-27T11:15:02.799Z,36.12
2023-04-27T11:16:02.886Z,36.61
2023-04-27T11:17:03.351Z,36.92
2023-04-27T11:18:02.971Z,36.78
2023-04-27T11:19:02.989Z,36.96
2023-04-27T11:20:03.051Z,38.05
2023-04-27T11:21:03.011Z,38.43
2023-04-27T11:22:03.860Z,38.28
2023-04-27T11:23:03.165Z,38.81
2023-04-27T11:24:03.842Z,39.05
2023-04-27T11:25:03.361Z,38.34
2023-04-27T11:26:03.159Z,38.37
2023-04-27T11:27:03.840Z,38.19
2023-04-27T11:28:03.278Z,38.58
2023-04-27T11:29:03.336Z,38.50
2023-04-27T11:30:03.849Z,37.34
2023-04-27T11:31:03.436Z,37.84
2023-04-27T11:32:03.932Z,38.11
2023-04-27T11:33:03.534Z,37.73
2023-04-27T11:34:04.040Z,37.12
2023-04-27T11:35:04.351Z,37.05
2023-04-27T11:36:03.656Z,37.21
2023-04-27T11:37:16.792Z,37.19
2023-04-27T11:38:05.326Z,37.13
2023-04-27T11:39:03.812Z,36.88
2023-04-27T11:40:03.687Z,36.71
2023-04-27T11:41:03.704Z,36.62
2023-04-27T11:42:03.661Z,36.42
2023-04-27T11:43:03.691Z,36.01
2023-04-27T11:44:03.665Z,35.99
2023-04-27T11:45:03.676Z,35.59
2023-04-27T11:46:03.639Z,35.51
2023-04-27T11:47:03.694Z,35.71
2023-04-27T11:48:03.673Z,35.85
2023-04-27T11:49:03.648Z,35.33
2023-04-27T11:50:03.666Z,34.23
2023-04-27T11:51:03.677Z,34.85
2023-04-27T11:52:03.761Z,34.91
2023-04-27T11:53:03.813Z,34.04
2023-04-27T11:54:03.894Z,34.54
2023-04-27T11:55:03.853Z,34.77
2023-04-27T11:56:03.929Z,35.28
2023-04-27T11:57:03.932Z,35.25
2023-04-27T11:58:03.955Z,34.47
2023-04-27T11:59:03.936Z,34.51
2023-04-27T12:00:04.006Z,34.35
2023-04-27T12:01:04.007Z,35.09
2023-04-27T12:02:04.118Z,34.78
2023-04-27T12:03:04.229Z,34.82
2023-04-27T12:04:04.448Z,34.97
2023-04-27T12:05:04.487Z,34.84
2023-04-27T12:06:21.568Z,35.44
2023-04-27T12:07:05.210Z,35.52
2023-04-27T12:08:04.207Z,35.36
2023-04-27T12:09:04.205Z,35.74
2023-04-27T12:10:04.182Z,35.81
2023-04-27T12:11:04.312Z,35.83
2023-04-27T12:12:04.181Z,34.83
2023-04-27T12:13:04.149Z,34.96
2023-04-27T12:14:04.133Z,34.93
2023-04-27T12:15:04.137Z,35.52
2023-04-27T12:16:04.149Z,35.97
2023-04-27T12:17:04.197Z,34.92
2023-04-27T12:18:04.167Z,35.31
2023-04-27T12:19:04.161Z,35.90
2023-04-27T12:20:04.179Z,35.55
2023-04-27T12:21:04.881Z,35.38
2023-04-27T12:22:04.204Z,35.02
2023-04-27T12:23:04.229Z,35.42
2023-04-27T12:24:04.237Z,37.03
2023-04-27T12:25:04.370Z,36.72
2023-04-27T12:26:04.343Z,35.78
2023-04-27T12:27:04.515Z,36.40
2023-04-27T12:28:04.431Z,35.74
2023-04-27T12:29:04.494Z,35.62
2023-04-27T12:30:04.568Z,35.21
2023-04-27T12:31:04.599Z,35.32
2023-04-27T12:32:04.621Z,35.95
2023-04-27T12:33:04.663Z,36.06
2023-04-27T12:34:04.694Z,35.79
2023-04-27T12:35:05.103Z,36.09
2023-04-27T12:36:04.740Z,35.93
2023-04-27T12:37:04.813Z,35.73
2023-04-27T12:38:04.814Z,35.72
2023-04-27T12:39:04.851Z,35.52
2023-04-27T12:40:04.847Z,35.08
2023-04-27T12:41:04.813Z,35.45
2023-04-27T12:42:04.946Z,35.83
2023-04-27T12:43:04.953Z,37.01
2023-04-27T12:44:04.886Z,36.44
2023-04-27T12:45:04.882Z,37.07
2023-04-27T12:46:04.881Z,37.07
2023-04-27T12:47:04.957Z,36.70
2023-04-27T12:48:05.069Z,36.59
2023-04-27T12:49:05.013Z,36.41
2023-04-27T12:50:05.007Z,36.06
2023-04-27T12:51:04.993Z,35.69
2023-04-27T12:52:05.028Z,34.97
2023-04-27T12:53:05.046Z,35.40